Reno - Stead, NV

9:45 AM PDT on April 28, 2017 (GMT -0700)
Reno - Stead

Weather History for KRTS - October, 2013

Change the Weather History Date:

Thursday, October 10, 2013

  Actual Average (KRNO) Record (KRNO)
Temperature  
Mean Temperature 46 °F -  
Max Temperature 62 °F 72 °F 88 °F (2015)
Min Temperature 30 °F 34 °F 16 °F (1973)
Degree Days  
Heating Degree Days 19    
Moisture  
Dew Point 28 °F    
Average Humidity 54    
Maximum Humidity 86    
Minimum Humidity 23    
Precipitation  
Precipitation 0.00 in - - ()
Sea Level Pressure  
Sea Level Pressure 29.93 in    
Wind  
Wind Speed 7 mph (NW)    
Max Wind Speed 17 mph    
Max Gust Speed 26 mph    
Visibility 10 miles    
Events      
Averages and records for this station are not official NWS values.
T = Trace of Precipitation, MM = Missing Value Source: NWS Daily Summary

Daily Weather History Graph

Daily Weather History Graph

Search for Another Location

Airport or City:

Trip Planner

Search our weather history database for the weather conditions in past years. The results will help you decide how hot, cold, wet, or windy it might be!

Date:

Astronomy

Oct. 10, 2013 Rise Set
Actual Time 7:04 AM PDT 6:27 PM PDT
Civil Twilight 6:37 AM PDT 6:54 PM PDT
Nautical Twilight 6:06 AM PDT 7:25 PM PDT
Astronomical Twilight 5:35 AM PDT 7:56 PM PDT
Moon 1:00 PM PDT (10/10) 11:11 PM PDT (10/10)
Length of Visible Light 12h 16m
Length of Day
11h 22m
Waxing Crescent, 37% of the Moon is Illuminated
Oct 10
Waxing Crescent
Oct 11
First Quarter
Oct 18
Full
Oct 26
Last Quarter
Nov 3
New

Hourly Weather History & Observations

Time (PDT) Temp. Windchill Dew Point Humidity Pressure Visibility Wind Dir Wind Speed Gust Speed Precip Events Conditions
12:15 AM 39.2 °F 32.5 °F 28.4 °F 65% 29.84 in 10.0 mi WNW 10.4 mph - N/A   Clear
12:35 AM 39.2 °F 35.0 °F 28.4 °F 65% 29.83 in 10.0 mi WNW 5.8 mph - N/A   Clear
12:55 AM 37.4 °F 30.3 °F 28.4 °F 70% 29.84 in 10.0 mi NW 10.4 mph - N/A   Clear
1:15 AM 35.6 °F 28.6 °F 28.4 °F 75% 29.84 in 10.0 mi NNW 9.2 mph - N/A   Clear
1:35 AM 37.4 °F 30.3 °F 28.4 °F 70% 29.85 in 10.0 mi NW 10.4 mph - N/A   Clear
1:55 AM 39.2 °F 33.0 °F 28.4 °F 65% 29.86 in 10.0 mi NW 9.2 mph 16.1 mph N/A   Clear
2:15 AM 37.4 °F 31.4 °F 28.4 °F 70% 29.86 in 10.0 mi NNW 8.1 mph - N/A   Clear
2:35 AM 35.6 °F 30.7 °F 28.4 °F 75% 29.87 in 10.0 mi NW 5.8 mph - N/A   Clear
2:55 AM 33.8 °F 28.6 °F 26.6 °F 75% 29.87 in 10.0 mi NNW 5.8 mph - N/A   Clear
3:15 AM 37.4 °F 33.8 °F 28.4 °F 70% 29.86 in 10.0 mi NNW 4.6 mph - N/A   Clear
3:35 AM 33.8 °F 26.4 °F 26.6 °F 75% 29.86 in 10.0 mi West 9.2 mph - N/A   Clear
3:55 AM 33.8 °F 28.6 °F 26.6 °F 75% 29.87 in 10.0 mi NNW 5.8 mph - N/A   Clear
4:15 AM 35.6 °F 29.9 °F 28.4 °F 75% 29.87 in 10.0 mi North 6.9 mph - N/A   Clear
4:35 AM 32.0 °F 26.4 °F 26.6 °F 80% 29.86 in 10.0 mi North 5.8 mph - N/A   Clear
4:55 AM 32.0 °F 24.8 °F 26.6 °F 80% 29.87 in 10.0 mi NNW 8.1 mph - N/A   Clear
5:15 AM 32.0 °F 25.6 °F 26.6 °F 80% 29.87 in 10.0 mi North 6.9 mph - N/A   Clear
5:35 AM 32.0 °F 27.5 °F 26.6 °F 80% 29.88 in 10.0 mi North 4.6 mph - N/A   Clear
5:55 AM 32.0 °F - 26.6 °F 80% 29.88 in 10.0 mi Calm Calm - N/A   Clear
6:15 AM 32.0 °F 24.2 °F 26.6 °F 80% 29.89 in 10.0 mi North 9.2 mph - N/A   Clear
6:35 AM 32.0 °F 24.8 °F 26.6 °F 80% 29.89 in 10.0 mi NW 8.1 mph - N/A   Clear
6:55 AM 32.0 °F 26.4 °F 26.6 °F 80% 29.89 in 10.0 mi NNW 5.8 mph - N/A   Clear
7:15 AM 30.2 °F 25.4 °F 26.6 °F 86% 29.90 in 10.0 mi NE 4.6 mph - N/A   Clear
7:35 AM 32.0 °F - 26.6 °F 80% 29.90 in 10.0 mi Calm Calm - N/A   Clear
7:55 AM 32.0 °F - 26.6 °F 80% 29.90 in 10.0 mi Calm Calm - N/A   Clear
8:15 AM 33.8 °F - 26.6 °F 75% 29.91 in 10.0 mi Calm Calm - N/A   Clear
8:35 AM 35.6 °F - 28.4 °F 75% 29.91 in 10.0 mi Calm Calm - N/A   Clear
8:55 AM 37.4 °F - 28.4 °F 70% 29.92 in 10.0 mi Calm Calm - N/A   Clear
9:15 AM 39.2 °F - 28.4 °F 65% 29.93 in 10.0 mi Calm Calm - N/A   Clear
9:35 AM 41.0 °F - 28.4 °F 61% 29.94 in 10.0 mi Calm Calm - N/A   Clear
9:55 AM 41.0 °F - 28.4 °F 61% 29.94 in 10.0 mi Calm Calm - N/A   Clear
10:15 AM 44.6 °F - 28.4 °F 53% 29.94 in 10.0 mi Calm Calm - N/A   Clear
10:35 AM 46.4 °F - 30.2 °F 53% 29.94 in 10.0 mi Calm Calm - N/A   Clear
10:55 AM 46.4 °F - 30.2 °F 53% 29.94 in 10.0 mi Calm Calm - N/A   Clear
11:15 AM 48.2 °F - 30.2 °F 50% 29.93 in 10.0 mi Calm Calm - N/A   Clear
11:35 AM 50.0 °F - 28.4 °F 43% 29.93 in 10.0 mi Calm Calm - N/A   Clear
11:55 AM 53.6 °F - 28.4 °F 38% 29.93 in 10.0 mi East 3.5 mph - N/A   Clear
12:15 PM 53.6 °F - 28.4 °F 38% 29.92 in 10.0 mi NW 5.8 mph - N/A   Clear
12:35 PM 55.4 °F - 26.6 °F 33% 29.92 in 10.0 mi NNW 12.7 mph - N/A   Clear
12:55 PM 57.2 °F - 26.6 °F 31% 29.93 in 10.0 mi NW 10.4 mph - N/A   Clear
1:15 PM 57.2 °F - 26.6 °F 31% 29.92 in 10.0 mi North 3.5 mph 20.7 mph N/A   Clear
1:35 PM 59.0 °F - 24.8 °F 27% 29.92 in 10.0 mi NW 13.8 mph 20.7 mph N/A   Clear
1:55 PM 59.0 °F - 24.8 °F 27% 29.91 in 10.0 mi NW 15.0 mph 20.7 mph N/A   Clear
2:15 PM 59.0 °F - 24.8 °F 27% 29.91 in 10.0 mi NNW 17.3 mph 25.3 mph N/A   Clear
2:35 PM 60.8 °F - 26.6 °F 27% 29.92 in 10.0 mi NW 13.8 mph 19.6 mph N/A   Clear
2:55 PM 60.8 °F - 24.8 °F 25% 29.92 in 10.0 mi NW 11.5 mph 21.9 mph N/A   Clear
3:15 PM 60.8 °F - 24.8 °F 25% 29.93 in 10.0 mi NW 12.7 mph 26.5 mph N/A   Clear
3:35 PM 60.8 °F - 24.8 °F 25% 29.93 in 10.0 mi West 8.1 mph - N/A   Clear
3:55 PM 60.8 °F - 26.6 °F 27% 29.93 in 10.0 mi North 11.5 mph 19.6 mph N/A   Scattered Clouds
4:15 PM 62.6 °F - 24.8 °F 24% 29.92 in 10.0 mi NW 10.4 mph 17.3 mph N/A   Partly Cloudy
4:35 PM 62.6 °F - 24.8 °F 24% 29.92 in 10.0 mi West 13.8 mph 19.6 mph N/A   Clear
4:55 PM 60.8 °F - 23.0 °F 23% 29.92 in 10.0 mi WNW 12.7 mph 18.4 mph N/A   Clear
5:15 PM 60.8 °F - 23.0 °F 23% 29.92 in 10.0 mi WNW 11.5 mph 16.1 mph N/A   Clear
5:35 PM 59.0 °F - 21.2 °F 23% 29.93 in 10.0 mi WNW 12.7 mph - N/A   Clear
5:55 PM 59.0 °F - 24.8 °F 27% 29.93 in 10.0 mi WNW 12.7 mph - N/A   Clear
6:15 PM 57.2 °F - 26.6 °F 31% 29.94 in 10.0 mi West 10.4 mph - N/A   Clear
6:35 PM 55.4 °F - 28.4 °F 36% 29.94 in 10.0 mi WNW 6.9 mph - N/A   Clear
6:55 PM 53.6 °F - 28.4 °F 38% 29.95 in 10.0 mi WNW 8.1 mph - N/A   Clear
7:15 PM 53.6 °F - 30.2 °F 41% 29.96 in 10.0 mi NW 10.4 mph - N/A   Clear
7:35 PM 53.6 °F - 32.0 °F 44% 29.97 in 10.0 mi WNW 10.4 mph 20.7 mph N/A   Clear
7:55 PM 51.8 °F - 32.0 °F 47% 29.98 in 10.0 mi WNW 11.5 mph - N/A   Clear
8:15 PM 50.0 °F - 32.0 °F 50% 29.99 in 10.0 mi NW 12.7 mph - N/A   Clear
8:35 PM 50.0 °F - 32.0 °F 50% 30.00 in 10.0 mi WNW 10.4 mph - N/A   Clear
8:55 PM 48.2 °F - 32.0 °F 54% 30.00 in 10.0 mi WNW 9.2 mph - N/A   Clear
9:15 PM 48.2 °F - 32.0 °F 54% 30.01 in 10.0 mi NW 9.2 mph - N/A   Clear
9:35 PM 48.2 °F - 32.0 °F 54% 30.02 in 10.0 mi NW 10.4 mph - N/A   Clear
9:55 PM 46.4 °F 42.9 °F 32.0 °F 57% 30.03 in 10.0 mi NNW 6.9 mph - N/A   Clear
10:15 PM 44.6 °F 41.4 °F 32.0 °F 61% 30.03 in 10.0 mi NNW 5.8 mph - N/A   Clear
10:35 PM 46.4 °F 43.5 °F 32.0 °F 57% 30.04 in 10.0 mi West 5.8 mph - N/A   Clear
10:55 PM 44.6 °F 39.7 °F 32.0 °F 61% 30.04 in 10.0 mi WNW 9.2 mph - N/A   Clear
11:15 PM 44.6 °F 39.7 °F 32.0 °F 61% 30.04 in 10.0 mi WNW 9.2 mph - N/A   Clear
11:35 PM 42.8 °F 37.5 °F 32.0 °F 66% 30.04 in 10.0 mi West 9.2 mph - N/A   Clear
11:55 PM 42.8 °F 40.1 °F 32.0 °F 66% 30.04 in 10.0 mi NNW 4.6 mph - N/A   Clear